sensor_id;sensor_type;location;lat;lon;timestamp;temperature;humidity
9118;DHT22;4594;50.994;7.126;2022-12-26T00:01:54;15.10;65.40
9118;DHT22;4594;50.994;7.126;2022-12-26T00:04:21;15.00;65.30
9118;DHT22;4594;50.994;7.126;2022-12-26T00:06:48;15.00;65.10
9118;DHT22;4594;50.994;7.126;2022-12-26T00:09:14;15.00;65.20
9118;DHT22;4594;50.994;7.126;2022-12-26T00:11:41;15.00;65.00
9118;DHT22;4594;50.994;7.126;2022-12-26T00:14:11;15.00;64.90
9118;DHT22;4594;50.994;7.126;2022-12-26T00:16:40;15.00;64.20
9118;DHT22;4594;50.994;7.126;2022-12-26T00:19:08;15.00;64.40
9118;DHT22;4594;50.994;7.126;2022-12-26T00:21:34;15.00;64.50
9118;DHT22;4594;50.994;7.126;2022-12-26T00:24:00;15.00;64.40
9118;DHT22;4594;50.994;7.126;2022-12-26T00:26:28;14.90;64.20
9118;DHT22;4594;50.994;7.126;2022-12-26T00:28:55;14.90;63.90
9118;DHT22;4594;50.994;7.126;2022-12-26T00:31:27;14.90;63.90
9118;DHT22;4594;50.994;7.126;2022-12-26T00:33:55;15.00;63.00
9118;DHT22;4594;50.994;7.126;2022-12-26T00:36:23;14.90;64.00
9118;DHT22;4594;50.994;7.126;2022-12-26T00:38:52;14.90;63.60
9118;DHT22;4594;50.994;7.126;2022-12-26T00:41:19;14.90;64.10
9118;DHT22;4594;50.994;7.126;2022-12-26T00:43:46;14.90;64.20
9118;DHT22;4594;50.994;7.126;2022-12-26T00:46:12;14.90;64.20
9118;DHT22;4594;50.994;7.126;2022-12-26T00:48:38;14.90;64.30
9118;DHT22;4594;50.994;7.126;2022-12-26T00:51:04;14.90;64.30
9118;DHT22;4594;50.994;7.126;2022-12-26T00:53:31;14.80;64.10
9118;DHT22;4594;50.994;7.126;2022-12-26T00:55:57;14.90;64.30
9118;DHT22;4594;50.994;7.126;2022-12-26T00:58:24;14.90;64.30
9118;DHT22;4594;50.994;7.126;2022-12-26T01:00:50;14.80;64.20
9118;DHT22;4594;50.994;7.126;2022-12-26T01:03:16;14.90;64.30
9118;DHT22;4594;50.994;7.126;2022-12-26T01:05:45;14.90;64.30
9118;DHT22;4594;50.994;7.126;2022-12-26T01:08:16;14.90;64.00
9118;DHT22;4594;50.994;7.126;2022-12-26T01:10:43;14.90;64.30
9118;DHT22;4594;50.994;7.126;2022-12-26T01:13:11;14.90;64.20
9118;DHT22;4594;50.994;7.126;2022-12-26T01:15:37;14.90;64.40
9118;DHT22;4594;50.994;7.126;2022-12-26T01:18:04;14.90;64.50
9118;DHT22;4594;50.994;7.126;2022-12-26T01:20:30;14.90;64.20
9118;DHT22;4594;50.994;7.126;2022-12-26T01:22:56;14.90;64.90
9118;DHT22;4594;50.994;7.126;2022-12-26T01:25:22;14.90;64.50
9118;DHT22;4594;50.994;7.126;2022-12-26T01:27:48;14.90;64.50
9118;DHT22;4594;50.994;7.126;2022-12-26T01:30:16;14.90;64.30
9118;DHT22;4594;50.994;7.126;2022-12-26T01:32:42;14.90;64.10
9118;DHT22;4594;50.994;7.126;2022-12-26T01:35:08;14.90;64.00
9118;DHT22;4594;50.994;7.126;2022-12-26T01:37:34;14.90;64.00
9118;DHT22;4594;50.994;7.126;2022-12-26T01:39:59;14.90;64.00
9118;DHT22;4594;50.994;7.126;2022-12-26T01:42:25;14.90;64.00
9118;DHT22;4594;50.994;7.126;2022-12-26T01:45:22;14.90;64.10
9118;DHT22;4594;50.994;7.126;2022-12-26T01:50:59;14.90;63.10
9118;DHT22;4594;50.994;7.126;2022-12-26T01:53:31;14.90;61.30
9118;DHT22;4594;50.994;7.126;2022-12-26T01:56:07;14.90;63.00
9118;DHT22;4594;50.994;7.126;2022-12-26T01:58:46;14.90;63.00
9118;DHT22;4594;50.994;7.126;2022-12-26T02:01:15;14.90;62.50
9118;DHT22;4594;50.994;7.126;2022-12-26T02:03:44;14.90;63.70
9118;DHT22;4594;50.994;7.126;2022-12-26T02:06:31;14.90;63.40
9118;DHT22;4594;50.994;7.126;2022-12-26T02:08:58;14.90;63.80
9118;DHT22;4594;50.994;7.126;2022-12-26T02:11:34;14.90;63.70
9118;DHT22;4594;50.994;7.126;2022-12-26T02:14:05;14.90;62.30
9118;DHT22;4594;50.994;7.126;2022-12-26T02:16:33;14.90;63.40
9118;DHT22;4594;50.994;7.126;2022-12-26T02:19:00;14.90;63.90
9118;DHT22;4594;50.994;7.126;2022-12-26T02:21:47;14.90;64.00
9118;DHT22;4594;50.994;7.126;2022-12-26T02:36:23;14.90;61.70
9118;DHT22;4594;50.994;7.126;2022-12-26T02:39:16;14.90;62.20
9118;DHT22;4594;50.994;7.126;2022-12-26T02:48:11;14.90;62.20
9118;DHT22;4594;50.994;7.126;2022-12-26T02:53:52;14.90;62.60
9118;DHT22;4594;50.994;7.126;2022-12-26T02:56:57;14.90;61.90
9118;DHT22;4594;50.994;7.126;2022-12-26T03:02:59;14.90;61.40
9118;DHT22;4594;50.994;7.126;2022-12-26T03:06:13;14.90;62.20
9118;DHT22;4594;50.994;7.126;2022-12-26T03:09:04;14.90;61.00
9118;DHT22;4594;50.994;7.126;2022-12-26T03:12:37;14.70;62.40
9118;DHT22;4594;50.994;7.126;2022-12-26T03:15:14;14.80;62.30
9118;DHT22;4594;50.994;7.126;2022-12-26T03:17:46;14.80;62.70
9118;DHT22;4594;50.994;7.126;2022-12-26T03:20:17;14.80;62.80
9118;DHT22;4594;50.994;7.126;2022-12-26T03:22:54;14.80;62.60
9118;DHT22;4594;50.994;7.126;2022-12-26T03:25:49;14.80;61.80
9118;DHT22;4594;50.994;7.126;2022-12-26T03:28:37;14.80;60.60
9118;DHT22;4594;50.994;7.126;2022-12-26T03:31:06;14.80;63.50
9118;DHT22;4594;50.994;7.126;2022-12-26T03:33:37;14.80;63.10
9118;DHT22;4594;50.994;7.126;2022-12-26T03:36:56;14.70;63.10
9118;DHT22;4594;50.994;7.126;2022-12-26T03:40:19;14.80;61.20
9118;DHT22;4594;50.994;7.126;2022-12-26T03:43:17;14.80;62.40
9118;DHT22;4594;50.994;7.126;2022-12-26T03:49:34;14.80;62.70
9118;DHT22;4594;50.994;7.126;2022-12-26T03:52:51;14.80;63.00
9118;DHT22;4594;50.994;7.126;2022-12-26T03:55:58;14.80;61.20
9118;DHT22;4594;50.994;7.126;2022-12-26T03:59:00;14.80;63.20
9118;DHT22;4594;50.994;7.126;2022-12-26T04:01:55;14.80;63.30
9118;DHT22;4594;50.994;7.126;2022-12-26T04:04:44;14.80;64.00
9118;DHT22;4594;50.994;7.126;2022-12-26T04:07:32;14.80;63.90
9118;DHT22;4594;50.994;7.126;2022-12-26T04:10:40;14.80;63.60
9118;DHT22;4594;50.994;7.126;2022-12-26T04:13:48;14.80;63.80
9118;DHT22;4594;50.994;7.126;2022-12-26T04:17:01;14.80;63.10
9118;DHT22;4594;50.994;7.126;2022-12-26T04:20:11;14.80;61.90
9118;DHT22;4594;50.994;7.126;2022-12-26T04:22:59;14.80;62.20
9118;DHT22;4594;50.994;7.126;2022-12-26T04:26:22;14.70;61.90
9118;DHT22;4594;50.994;7.126;2022-12-26T04:29:11;14.70;62.70
9118;DHT22;4594;50.994;7.126;2022-12-26T04:32:07;14.70;64.30
9118;DHT22;4594;50.994;7.126;2022-12-26T04:35:06;14.70;63.20
9118;DHT22;4594;50.994;7.126;2022-12-26T04:37:59;14.70;63.10
9118;DHT22;4594;50.994;7.126;2022-12-26T04:40:48;14.70;64.50
9118;DHT22;4594;50.994;7.126;2022-12-26T04:43:37;14.60;64.10
9118;DHT22;4594;50.994;7.126;2022-12-26T04:46:22;14.60;64.40
9118;DHT22;4594;50.994;7.126;2022-12-26T04:48:51;14.60;64.40
9118;DHT22;4594;50.994;7.126;2022-12-26T04:51:37;14.60;64.10
9118;DHT22;4594;50.994;7.126;2022-12-26T04:54:04;14.60;64.40
9118;DHT22;4594;50.994;7.126;2022-12-26T04:56:30;14.60;64.40
9118;DHT22;4594;50.994;7.126;2022-12-26T04:58:56;14.60;64.50
9118;DHT22;4594;50.994;7.126;2022-12-26T05:01:21;14.60;64.40
9118;DHT22;4594;50.994;7.126;2022-12-26T05:04:07;14.60;64.50
9118;DHT22;4594;50.994;7.126;2022-12-26T05:06:56;14.50;64.40
9118;DHT22;4594;50.994;7.126;2022-12-26T05:09:41;14.50;64.50
9118;DHT22;4594;50.994;7.126;2022-12-26T05:12:08;14.50;64.50
9118;DHT22;4594;50.994;7.126;2022-12-26T05:14:35;14.50;64.30
9118;DHT22;4594;50.994;7.126;2022-12-26T05:17:03;14.50;64.60
9118;DHT22;4594;50.994;7.126;2022-12-26T05:19:48;14.50;64.50
9118;DHT22;4594;50.994;7.126;2022-12-26T05:22:35;14.50;64.60
9118;DHT22;4594;50.994;7.126;2022-12-26T05:25:24;14.50;64.70
9118;DHT22;4594;50.994;7.126;2022-12-26T05:28:12;14.50;64.30
9118;DHT22;4594;50.994;7.126;2022-12-26T05:30:57;14.50;64.80
9118;DHT22;4594;50.994;7.126;2022-12-26T05:33:23;14.50;64.80
9118;DHT22;4594;50.994;7.126;2022-12-26T05:36:09;14.50;64.80
9118;DHT22;4594;50.994;7.126;2022-12-26T05:38:35;14.50;64.60
9118;DHT22;4594;50.994;7.126;2022-12-26T05:41:02;14.40;64.50
9118;DHT22;4594;50.994;7.126;2022-12-26T05:43:28;14.40;64.50
9118;DHT22;4594;50.994;7.126;2022-12-26T05:45:54;14.40;64.50
9118;DHT22;4594;50.994;7.126;2022-12-26T05:48:19;14.30;64.30
9118;DHT22;4594;50.994;7.126;2022-12-26T05:50:45;14.30;64.20
9118;DHT22;4594;50.994;7.126;2022-12-26T05:53:11;14.30;64.10
9118;DHT22;4594;50.994;7.126;2022-12-26T05:55:37;14.30;64.10
9118;DHT22;4594;50.994;7.126;2022-12-26T05:58:02;14.20;64.00
9118;DHT22;4594;50.994;7.126;2022-12-26T06:00:28;14.20;64.10
9118;DHT22;4594;50.994;7.126;2022-12-26T06:02:57;14.10;64.10
9118;DHT22;4594;50.994;7.126;2022-12-26T06:05:23;14.10;64.40
9118;DHT22;4594;50.994;7.126;2022-12-26T06:07:49;14.10;64.60
9118;DHT22;4594;50.994;7.126;2022-12-26T06:10:15;14.00;64.60
9118;DHT22;4594;50.994;7.126;2022-12-26T06:12:41;14.00;64.60
9118;DHT22;4594;50.994;7.126;2022-12-26T06:15:07;14.10;64.80
9118;DHT22;4594;50.994;7.126;2022-12-26T06:17:33;14.00;64.80
9118;DHT22;4594;50.994;7.126;2022-12-26T06:19:59;14.00;64.90
9118;DHT22;4594;50.994;7.126;2022-12-26T06:22:24;14.00;64.80
9118;DHT22;4594;50.994;7.126;2022-12-26T06:24:52;14.00;64.70
9118;DHT22;4594;50.994;7.126;2022-12-26T06:27:18;14.00;64.60
9118;DHT22;4594;50.994;7.126;2022-12-26T06:29:44;14.00;64.60
9118;DHT22;4594;50.994;7.126;2022-12-26T06:32:10;13.90;64.40
9118;DHT22;4594;50.994;7.126;2022-12-26T06:34:35;13.90;64.50
9118;DHT22;4594;50.994;7.126;2022-12-26T06:37:01;13.90;64.60
9118;DHT22;4594;50.994;7.126;2022-12-26T06:39:27;13.90;64.70
9118;DHT22;4594;50.994;7.126;2022-12-26T06:41:53;13.90;64.80
9118;DHT22;4594;50.994;7.126;2022-12-26T06:44:18;13.80;64.90
9118;DHT22;4594;50.994;7.126;2022-12-26T06:46:44;13.80;64.90
9118;DHT22;4594;50.994;7.126;2022-12-26T06:49:10;13.80;65.00
9118;DHT22;4594;50.994;7.126;2022-12-26T06:51:36;13.80;65.00
9118;DHT22;4594;50.994;7.126;2022-12-26T06:54:02;13.80;65.00
9118;DHT22;4594;50.994;7.126;2022-12-26T06:56:28;13.80;65.00
9118;DHT22;4594;50.994;7.126;2022-12-26T06:58:59;13.80;65.10
9118;DHT22;4594;50.994;7.126;2022-12-26T07:01:28;13.80;64.60
9118;DHT22;4594;50.994;7.126;2022-12-26T07:03:56;13.70;64.90
9118;DHT22;4594;50.994;7.126;2022-12-26T07:06:24;13.70;65.10
9118;DHT22;4594;50.994;7.126;2022-12-26T07:08:52;13.70;65.00
9118;DHT22;4594;50.994;7.126;2022-12-26T07:11:25;13.70;65.10
9118;DHT22;4594;50.994;7.126;2022-12-26T07:13:54;13.70;65.00
9118;DHT22;4594;50.994;7.126;2022-12-26T07:16:20;13.70;65.40
9118;DHT22;4594;50.994;7.126;2022-12-26T07:18:46;13.70;65.50
9118;DHT22;4594;50.994;7.126;2022-12-26T07:21:14;13.70;65.60
9118;DHT22;4594;50.994;7.126;2022-12-26T07:23:41;13.70;65.60
9118;DHT22;4594;50.994;7.126;2022-12-26T07:26:07;13.70;65.80
9118;DHT22;4594;50.994;7.126;2022-12-26T07:28:33;13.70;65.80
9118;DHT22;4594;50.994;7.126;2022-12-26T07:30:59;13.70;65.80
9118;DHT22;4594;50.994;7.126;2022-12-26T07:33:26;13.70;65.80
9118;DHT22;4594;50.994;7.126;2022-12-26T07:35:53;13.70;65.80
9118;DHT22;4594;50.994;7.126;2022-12-26T07:38:19;13.70;65.90
9118;DHT22;4594;50.994;7.126;2022-12-26T07:40:45;13.70;65.90
9118;DHT22;4594;50.994;7.126;2022-12-26T07:43:11;13.70;66.00
9118;DHT22;4594;50.994;7.126;2022-12-26T07:45:36;13.70;65.90
9118;DHT22;4594;50.994;7.126;2022-12-26T07:48:02;13.80;66.00
9118;DHT22;4594;50.994;7.126;2022-12-26T07:50:28;13.70;65.90
9118;DHT22;4594;50.994;7.126;2022-12-26T07:52:54;13.70;65.90
9118;DHT22;4594;50.994;7.126;2022-12-26T07:55:20;13.70;65.90
9118;DHT22;4594;50.994;7.126;2022-12-26T07:57:50;13.70;65.90
9118;DHT22;4594;50.994;7.126;2022-12-26T08:00:17;13.60;65.40
9118;DHT22;4594;50.994;7.126;2022-12-26T08:02:46;13.70;65.90
9118;DHT22;4594;50.994;7.126;2022-12-26T08:05:14;13.70;66.10
9118;DHT22;4594;50.994;7.126;2022-12-26T08:07:41;13.70;66.10
9118;DHT22;4594;50.994;7.126;2022-12-26T08:10:07;13.70;66.10
9118;DHT22;4594;50.994;7.126;2022-12-26T08:12:33;13.70;66.10
9118;DHT22;4594;50.994;7.126;2022-12-26T08:14:59;13.70;65.90
9118;DHT22;4594;50.994;7.126;2022-12-26T08:17:24;13.70;65.70
9118;DHT22;4594;50.994;7.126;2022-12-26T08:19:50;13.70;65.60
9118;DHT22;4594;50.994;7.126;2022-12-26T08:22:16;13.70;65.40
9118;DHT22;4594;50.994;7.126;2022-12-26T08:24:41;13.70;65.30
9118;DHT22;4594;50.994;7.126;2022-12-26T08:27:07;13.70;65.30
9118;DHT22;4594;50.994;7.126;2022-12-26T08:29:33;13.70;65.40
9118;DHT22;4594;50.994;7.126;2022-12-26T08:31:59;13.70;65.50
9118;DHT22;4594;50.994;7.126;2022-12-26T08:34:25;13.60;65.80
9118;DHT22;4594;50.994;7.126;2022-12-26T08:36:56;13.60;65.40
9118;DHT22;4594;50.994;7.126;2022-12-26T08:39:22;13.60;65.40
9118;DHT22;4594;50.994;7.126;2022-12-26T08:41:47;13.60;65.40
9118;DHT22;4594;50.994;7.126;2022-12-26T08:44:13;13.60;65.50
9118;DHT22;4594;50.994;7.126;2022-12-26T08:46:42;13.60;65.60
9118;DHT22;4594;50.994;7.126;2022-12-26T08:49:08;13.60;65.50
9118;DHT22;4594;50.994;7.126;2022-12-26T08:51:34;13.60;65.40
9118;DHT22;4594;50.994;7.126;2022-12-26T08:54:00;13.60;65.20
9118;DHT22;4594;50.994;7.126;2022-12-26T08:56:26;13.60;65.20
9118;DHT22;4594;50.994;7.126;2022-12-26T08:58:53;13.60;65.30
9118;DHT22;4594;50.994;7.126;2022-12-26T09:01:27;13.60;65.50
9118;DHT22;4594;50.994;7.126;2022-12-26T09:03:55;13.60;65.10
9118;DHT22;4594;50.994;7.126;2022-12-26T09:06:23;13.60;66.00
9118;DHT22;4594;50.994;7.126;2022-12-26T09:08:49;13.60;66.30
9118;DHT22;4594;50.994;7.126;2022-12-26T09:11:21;13.60;66.70
9118;DHT22;4594;50.994;7.126;2022-12-26T09:13:51;13.60;66.80
9118;DHT22;4594;50.994;7.126;2022-12-26T09:16:20;13.70;67.20
9118;DHT22;4594;50.994;7.126;2022-12-26T09:18:53;13.70;67.20
9118;DHT22;4594;50.994;7.126;2022-12-26T09:21:20;13.80;67.10
9118;DHT22;4594;50.994;7.126;2022-12-26T09:23:46;13.80;67.50
9118;DHT22;4594;50.994;7.126;2022-12-26T09:26:18;13.80;67.50
9118;DHT22;4594;50.994;7.126;2022-12-26T09:28:45;13.90;67.40
9118;DHT22;4594;50.994;7.126;2022-12-26T09:31:18;13.80;67.30
9118;DHT22;4594;50.994;7.126;2022-12-26T09:33:47;13.90;67.10
9118;DHT22;4594;50.994;7.126;2022-12-26T09:36:19;13.90;67.40
9118;DHT22;4594;50.994;7.126;2022-12-26T09:38:47;13.90;67.30
9118;DHT22;4594;50.994;7.126;2022-12-26T09:49:44;14.10;66.50
9118;DHT22;4594;50.994;7.126;2022-12-26T09:52:16;14.10;67.20
9118;DHT22;4594;50.994;7.126;2022-12-26T09:54:55;14.10;67.00
9118;DHT22;4594;50.994;7.126;2022-12-26T09:57:34;14.10;66.50
9118;DHT22;4594;50.994;7.126;2022-12-26T10:00:05;14.30;66.70
9118;DHT22;4594;50.994;7.126;2022-12-26T10:02:32;14.20;67.20
9118;DHT22;4594;50.994;7.126;2022-12-26T10:04:59;14.20;67.40
9118;DHT22;4594;50.994;7.126;2022-12-26T10:07:44;14.20;67.20
9118;DHT22;4594;50.994;7.126;2022-12-26T10:10:39;14.30;65.20
9118;DHT22;4594;50.994;7.126;2022-12-26T10:13:47;14.30;65.00
9118;DHT22;4594;50.994;7.126;2022-12-26T10:16:23;14.30;64.60
9118;DHT22;4594;50.994;7.126;2022-12-26T10:19:07;14.30;66.10
9118;DHT22;4594;50.994;7.126;2022-12-26T10:22:11;14.30;66.20
9118;DHT22;4594;50.994;7.126;2022-12-26T10:24:40;14.40;65.70
9118;DHT22;4594;50.994;7.126;2022-12-26T10:27:14;14.30;67.00
9118;DHT22;4594;50.994;7.126;2022-12-26T10:29:47;14.30;66.50
9118;DHT22;4594;50.994;7.126;2022-12-26T10:32:38;14.40;66.60
9118;DHT22;4594;50.994;7.126;2022-12-26T10:35:32;14.40;66.50
9118;DHT22;4594;50.994;7.126;2022-12-26T10:40:48;14.40;65.50
9118;DHT22;4594;50.994;7.126;2022-12-26T10:43:25;14.40;66.40
9118;DHT22;4594;50.994;7.126;2022-12-26T10:46:12;14.50;65.40
9118;DHT22;4594;50.994;7.126;2022-12-26T10:48:42;14.50;65.70
9118;DHT22;4594;50.994;7.126;2022-12-26T10:51:08;14.50;66.40
9118;DHT22;4594;50.994;7.126;2022-12-26T10:53:37;14.60;66.20
9118;DHT22;4594;50.994;7.126;2022-12-26T10:56:07;14.60;65.60
9118;DHT22;4594;50.994;7.126;2022-12-26T10:58:35;14.60;65.60
9118;DHT22;4594;50.994;7.126;2022-12-26T11:01:32;14.60;65.20
9118;DHT22;4594;50.994;7.126;2022-12-26T11:04:23;14.50;62.30
9118;DHT22;4594;50.994;7.126;2022-12-26T11:06:51;14.50;62.30
9118;DHT22;4594;50.994;7.126;2022-12-26T11:09:43;14.50;64.80
9118;DHT22;4594;50.994;7.126;2022-12-26T11:12:19;14.60;63.60
9118;DHT22;4594;50.994;7.126;2022-12-26T11:14:59;14.60;63.10
9118;DHT22;4594;50.994;7.126;2022-12-26T11:17:39;14.50;63.40
9118;DHT22;4594;50.994;7.126;2022-12-26T11:20:19;14.60;63.40
9118;DHT22;4594;50.994;7.126;2022-12-26T11:22:49;14.50;63.90
9118;DHT22;4594;50.994;7.126;2022-12-26T11:25:16;14.50;64.60
9118;DHT22;4594;50.994;7.126;2022-12-26T11:27:45;14.60;64.70
9118;DHT22;4594;50.994;7.126;2022-12-26T11:32:43;14.60;65.00
9118;DHT22;4594;50.994;7.126;2022-12-26T11:35:20;14.60;64.10
9118;DHT22;4594;50.994;7.126;2022-12-26T11:37:55;14.60;63.20
9118;DHT22;4594;50.994;7.126;2022-12-26T11:40:45;14.70;63.20
9118;DHT22;4594;50.994;7.126;2022-12-26T11:43:35;14.70;62.20
9118;DHT22;4594;50.994;7.126;2022-12-26T11:46:01;14.70;63.90
9118;DHT22;4594;50.994;7.126;2022-12-26T11:48:27;14.70;63.90
9118;DHT22;4594;50.994;7.126;2022-12-26T11:50:53;14.70;63.90
9118;DHT22;4594;50.994;7.126;2022-12-26T11:53:21;14.60;63.90
9118;DHT22;4594;50.994;7.126;2022-12-26T11:56:05;14.70;64.00
9118;DHT22;4594;50.994;7.126;2022-12-26T11:58:33;14.80;61.60
9118;DHT22;4594;50.994;7.126;2022-12-26T12:03:33;14.80;63.70
9118;DHT22;4594;50.994;7.126;2022-12-26T12:15:16;14.90;61.00
9118;DHT22;4594;50.994;7.126;2022-12-26T12:26:34;14.90;59.30
9118;DHT22;4594;50.994;7.126;2022-12-26T12:41:12;14.80;59.30
9118;DHT22;4594;50.994;7.126;2022-12-26T12:44:29;14.80;58.90
9118;DHT22;4594;50.994;7.126;2022-12-26T12:50:43;14.70;60.70
9118;DHT22;4594;50.994;7.126;2022-12-26T12:59:01;14.50;60.40
9118;DHT22;4594;50.994;7.126;2022-12-26T13:01:38;14.50;58.40
9118;DHT22;4594;50.994;7.126;2022-12-26T13:04:23;14.50;59.10
9118;DHT22;4594;50.994;7.126;2022-12-26T13:07:03;14.40;60.10
9118;DHT22;4594;50.994;7.126;2022-12-26T13:09:53;14.40;59.40
9118;DHT22;4594;50.994;7.126;2022-12-26T13:12:26;14.40;58.60
9118;DHT22;4594;50.994;7.126;2022-12-26T13:17:55;14.40;58.70
9118;DHT22;4594;50.994;7.126;2022-12-26T13:23:29;14.30;60.30
9118;DHT22;4594;50.994;7.126;2022-12-26T13:26:24;14.30;59.60
9118;DHT22;4594;50.994;7.126;2022-12-26T13:31:45;14.30;58.80
9118;DHT22;4594;50.994;7.126;2022-12-26T13:34:19;14.30;61.20
9118;DHT22;4594;50.994;7.126;2022-12-26T13:36:50;14.30;59.50
9118;DHT22;4594;50.994;7.126;2022-12-26T13:41:57;14.30;60.20
9118;DHT22;4594;50.994;7.126;2022-12-26T13:44:45;14.30;60.60
9118;DHT22;4594;50.994;7.126;2022-12-26T13:47:34;14.30;60.60
9118;DHT22;4594;50.994;7.126;2022-12-26T13:56:01;14.20;59.20
9118;DHT22;4594;50.994;7.126;2022-12-26T13:59:02;14.10;59.30
9118;DHT22;4594;50.994;7.126;2022-12-26T14:02:14;14.00;59.10
9118;DHT22;4594;50.994;7.126;2022-12-26T14:08:29;13.90;58.90
9118;DHT22;4594;50.994;7.126;2022-12-26T14:14:16;13.80;59.70
9118;DHT22;4594;50.994;7.126;2022-12-26T14:17:10;13.70;59.60
9118;DHT22;4594;50.994;7.126;2022-12-26T14:20:23;13.70;61.00
9118;DHT22;4594;50.994;7.126;2022-12-26T14:26:32;13.60;59.70
9118;DHT22;4594;50.994;7.126;2022-12-26T14:29:24;13.50;59.50
9118;DHT22;4594;50.994;7.126;2022-12-26T14:32:42;13.50;59.40
9118;DHT22;4594;50.994;7.126;2022-12-26T14:35:34;13.40;59.00
9118;DHT22;4594;50.994;7.126;2022-12-26T14:38:29;13.40;60.10
9118;DHT22;4594;50.994;7.126;2022-12-26T14:41:13;13.30;59.40
9118;DHT22;4594;50.994;7.126;2022-12-26T14:49:22;13.20;60.90
9118;DHT22;4594;50.994;7.126;2022-12-26T14:54:53;13.10;59.50
9118;DHT22;4594;50.994;7.126;2022-12-26T14:57:48;13.10;60.40
9118;DHT22;4594;50.994;7.126;2022-12-26T15:03:06;13.00;60.90
9118;DHT22;4594;50.994;7.126;2022-12-26T15:05:49;12.90;60.00
9118;DHT22;4594;50.994;7.126;2022-12-26T15:08:47;12.90;60.50
9118;DHT22;4594;50.994;7.126;2022-12-26T15:17:49;12.80;59.30
9118;DHT22;4594;50.994;7.126;2022-12-26T15:34:59;12.70;59.50
9118;DHT22;4594;50.994;7.126;2022-12-26T15:40:28;12.60;60.00
9118;DHT22;4594;50.994;7.126;2022-12-26T15:46:21;12.60;58.60
9118;DHT22;4594;50.994;7.126;2022-12-26T15:51:54;12.50;59.30
9118;DHT22;4594;50.994;7.126;2022-12-26T15:55:07;12.40;58.80
9118;DHT22;4594;50.994;7.126;2022-12-26T15:57:58;12.40;58.10
9118;DHT22;4594;50.994;7.126;2022-12-26T16:00:50;12.30;58.70
9118;DHT22;4594;50.994;7.126;2022-12-26T16:03:39;12.30;58.00
9118;DHT22;4594;50.994;7.126;2022-12-26T16:11:57;12.20;59.00
9118;DHT22;4594;50.994;7.126;2022-12-26T16:14:30;12.20;58.80
9118;DHT22;4594;50.994;7.126;2022-12-26T16:19:44;12.10;57.80
9118;DHT22;4594;50.994;7.126;2022-12-26T16:25:14;12.00;58.50
9118;DHT22;4594;50.994;7.126;2022-12-26T16:27:41;12.00;58.70
9118;DHT22;4594;50.994;7.126;2022-12-26T16:30:19;12.00;58.80
9118;DHT22;4594;50.994;7.126;2022-12-26T16:32:47;11.90;57.50
9118;DHT22;4594;50.994;7.126;2022-12-26T16:35:26;11.90;58.50
9118;DHT22;4594;50.994;7.126;2022-12-26T16:37:55;11.80;57.80
9118;DHT22;4594;50.994;7.126;2022-12-26T16:40:30;11.80;58.00
9118;DHT22;4594;50.994;7.126;2022-12-26T16:43:03;11.70;57.50
9118;DHT22;4594;50.994;7.126;2022-12-26T16:45:34;11.70;58.10
9118;DHT22;4594;50.994;7.126;2022-12-26T16:48:11;11.60;57.70
9118;DHT22;4594;50.994;7.126;2022-12-26T16:51:01;11.60;57.00
9118;DHT22;4594;50.994;7.126;2022-12-26T16:59:03;11.40;56.70
9118;DHT22;4594;50.994;7.126;2022-12-26T17:01:36;11.40;57.20
9118;DHT22;4594;50.994;7.126;2022-12-26T17:06:35;11.30;57.70
9118;DHT22;4594;50.994;7.126;2022-12-26T17:09:08;11.30;57.30
9118;DHT22;4594;50.994;7.126;2022-12-26T17:11:49;11.30;57.30
9118;DHT22;4594;50.994;7.126;2022-12-26T17:14:20;11.20;57.60
9118;DHT22;4594;50.994;7.126;2022-12-26T17:17:00;11.20;57.60
9118;DHT22;4594;50.994;7.126;2022-12-26T17:19:30;11.20;57.20
9118;DHT22;4594;50.994;7.126;2022-12-26T17:22:29;11.20;58.00
9118;DHT22;4594;50.994;7.126;2022-12-26T17:27:45;11.10;56.60
9118;DHT22;4594;50.994;7.126;2022-12-26T17:30:31;11.10;58.30
9118;DHT22;4594;50.994;7.126;2022-12-26T17:36:04;11.10;57.40
9118;DHT22;4594;50.994;7.126;2022-12-26T17:38:36;11.00;56.70
9118;DHT22;4594;50.994;7.126;2022-12-26T17:41:05;11.00;58.00
9118;DHT22;4594;50.994;7.126;2022-12-26T17:43:37;11.00;57.60
9118;DHT22;4594;50.994;7.126;2022-12-26T17:46:08;11.00;57.80
9118;DHT22;4594;50.994;7.126;2022-12-26T17:48:38;10.90;57.30
9118;DHT22;4594;50.994;7.126;2022-12-26T17:51:06;10.90;57.40
9118;DHT22;4594;50.994;7.126;2022-12-26T17:53:40;10.80;57.00
9118;DHT22;4594;50.994;7.126;2022-12-26T17:56:12;10.80;56.30
9118;DHT22;4594;50.994;7.126;2022-12-26T17:58:40;10.80;56.10
9118;DHT22;4594;50.994;7.126;2022-12-26T18:01:07;10.70;56.70
9118;DHT22;4594;50.994;7.126;2022-12-26T18:03:32;10.70;56.50
9118;DHT22;4594;50.994;7.126;2022-12-26T18:05:58;10.60;56.30
9118;DHT22;4594;50.994;7.126;2022-12-26T18:11:02;10.80;55.10
9118;DHT22;4594;50.994;7.126;2022-12-26T18:13:29;10.40;55.50
9118;DHT22;4594;50.994;7.126;2022-12-26T18:15:56;10.40;55.50
9118;DHT22;4594;50.994;7.126;2022-12-26T18:21:02;10.20;54.00
9118;DHT22;4594;50.994;7.126;2022-12-26T18:23:29;10.20;54.70
9118;DHT22;4594;50.994;7.126;2022-12-26T18:25:58;10.40;54.90
9118;DHT22;4594;50.994;7.126;2022-12-26T18:28:36;10.00;54.10
9118;DHT22;4594;50.994;7.126;2022-12-26T18:31:01;9.90;55.20
9118;DHT22;4594;50.994;7.126;2022-12-26T18:33:27;9.80;55.00
9118;DHT22;4594;50.994;7.126;2022-12-26T18:35:54;9.70;54.90
9118;DHT22;4594;50.994;7.126;2022-12-26T18:38:20;9.60;54.60
9118;DHT22;4594;50.994;7.126;2022-12-26T18:40:51;9.60;54.50
9118;DHT22;4594;50.994;7.126;2022-12-26T18:43:22;9.50;53.50
9118;DHT22;4594;50.994;7.126;2022-12-26T18:45:48;9.40;54.20
9118;DHT22;4594;50.994;7.126;2022-12-26T18:48:15;9.30;54.00
9118;DHT22;4594;50.994;7.126;2022-12-26T18:50:42;9.20;53.70
9118;DHT22;4594;50.994;7.126;2022-12-26T18:53:08;9.10;53.70
9118;DHT22;4594;50.994;7.126;2022-12-26T18:55:34;9.00;53.60
9118;DHT22;4594;50.994;7.126;2022-12-26T18:58:00;8.90;53.50
9118;DHT22;4594;50.994;7.126;2022-12-26T19:00:26;8.80;53.40
9118;DHT22;4594;50.994;7.126;2022-12-26T19:02:52;8.70;53.40
9118;DHT22;4594;50.994;7.126;2022-12-26T19:05:23;8.60;53.30
9118;DHT22;4594;50.994;7.126;2022-12-26T19:07:54;8.60;53.00
9118;DHT22;4594;50.994;7.126;2022-12-26T19:10:23;8.40;53.20
9118;DHT22;4594;50.994;7.126;2022-12-26T19:12:51;8.30;53.10
9118;DHT22;4594;50.994;7.126;2022-12-26T19:15:18;8.30;53.40
9118;DHT22;4594;50.994;7.126;2022-12-26T19:17:44;8.20;53.40
9118;DHT22;4594;50.994;7.126;2022-12-26T19:20:21;8.10;53.40
9118;DHT22;4594;50.994;7.126;2022-12-26T19:22:50;8.00;52.40
9118;DHT22;4594;50.994;7.126;2022-12-26T19:25:18;8.00;53.30
9118;DHT22;4594;50.994;7.126;2022-12-26T19:27:46;7.90;53.40
9118;DHT22;4594;50.994;7.126;2022-12-26T19:30:13;7.90;53.40
9118;DHT22;4594;50.994;7.126;2022-12-26T19:32:40;7.80;53.50
9118;DHT22;4594;50.994;7.126;2022-12-26T19:35:08;7.70;53.50
9118;DHT22;4594;50.994;7.126;2022-12-26T19:37:35;7.70;53.60
9118;DHT22;4594;50.994;7.126;2022-12-26T19:40:01;7.60;53.50
9118;DHT22;4594;50.994;7.126;2022-12-26T19:42:27;7.60;53.80
9118;DHT22;4594;50.994;7.126;2022-12-26T19:44:53;7.50;53.50
9118;DHT22;4594;50.994;7.126;2022-12-26T19:47:18;7.50;53.50
9118;DHT22;4594;50.994;7.126;2022-12-26T19:49:44;7.40;53.50
9118;DHT22;4594;50.994;7.126;2022-12-26T19:52:11;7.40;53.60
9118;DHT22;4594;50.994;7.126;2022-12-26T19:54:37;7.30;53.60
9118;DHT22;4594;50.994;7.126;2022-12-26T19:57:03;7.30;53.70